createdAt,value
2016-05-03T00:00:15.443Z,1011.44
2016-05-03T00:01:15.477Z,1011.42
2016-05-03T00:02:15.511Z,1011.41
2016-05-03T00:03:15.545Z,1011.43
2016-05-03T00:04:15.579Z,1011.4
2016-05-03T00:05:15.613Z,1011.38
2016-05-03T00:06:15.647Z,1011.37
2016-05-03T00:07:15.681Z,1011.42
2016-05-03T00:08:15.715Z,1011.39
2016-05-03T00:09:15.748Z,1011.43
2016-05-03T00:10:15.799Z,1011.35
2016-05-03T00:11:15.832Z,1011.35
2016-05-03T00:12:15.866Z,1011.33
2016-05-03T00:13:15.916Z,1011.33
2016-05-03T00:14:15.934Z,1011.3
2016-05-03T00:15:15.968Z,1011.26
2016-05-03T00:16:16.002Z,1011.28
2016-05-03T00:17:16.036Z,1011.29
2016-05-03T00:18:16.086Z,1011.22
2016-05-03T00:19:16.120Z,1011.26
2016-05-03T00:20:16.154Z,1011.26
2016-05-03T00:21:16.187Z,1011.26
2016-05-03T00:22:17.175Z,1011.23
2016-05-03T00:23:16.271Z,1011.19
2016-05-03T00:24:16.289Z,1011.18
2016-05-03T00:25:16.324Z,1011.17
2016-05-03T00:26:16.359Z,1011.19
2016-05-03T00:27:16.408Z,1011.16
2016-05-03T00:28:16.437Z,1011.15
2016-05-03T00:29:16.475Z,1011.17
2016-05-03T00:30:16.498Z,1011.19
2016-05-03T00:31:16.546Z,1011.15
2016-05-03T00:32:16.582Z,1011.18
2016-05-03T00:33:16.616Z,1011.21
2016-05-03T00:34:16.649Z,1011.15
2016-05-03T00:35:16.682Z,1011.15
2016-05-03T00:36:16.718Z,1011.16
2016-05-03T00:37:16.751Z,1011.18
2016-05-03T00:38:16.788Z,1011.17
2016-05-03T00:39:16.822Z,1011.18
2016-05-03T00:40:16.856Z,1011.17
2016-05-03T00:41:16.890Z,1011.16
2016-05-03T00:42:16.923Z,1011.16
2016-05-03T00:43:16.974Z,1011.19
2016-05-03T00:44:17.007Z,1011.18
2016-05-03T00:45:17.041Z,1011.15
2016-05-03T00:46:17.075Z,1011.14
2016-05-03T00:47:17.109Z,1011.15
2016-05-03T00:48:17.143Z,1011.15
2016-05-03T00:49:17.177Z,1011.14
2016-05-03T00:50:17.226Z,1011.13
2016-05-03T00:51:17.245Z,1011.13
2016-05-03T00:52:17.295Z,1011.11
2016-05-03T00:53:17.328Z,1011.08
2016-05-03T00:54:17.362Z,1011.08
2016-05-03T00:55:17.397Z,1011.08
2016-05-03T00:56:17.430Z,1011.04
2016-05-03T00:57:17.464Z,1011.04
2016-05-03T00:58:17.498Z,1011.03
2016-05-03T00:59:17.532Z,1011.05
2016-05-03T01:00:17.581Z,1010.99
2016-05-03T01:01:17.616Z,1011.01
2016-05-03T01:02:17.649Z,1010.99
2016-05-03T01:03:17.684Z,1011.01
2016-05-03T01:04:17.717Z,1011
2016-05-03T01:05:17.751Z,1010.98
2016-05-03T01:06:17.786Z,1010.98
2016-05-03T01:07:17.819Z,1011.03
2016-05-03T01:08:17.853Z,1010.97
2016-05-03T01:09:17.887Z,1010.95
2016-05-03T01:10:17.922Z,1010.93
2016-05-03T01:11:17.970Z,1010.95
2016-05-03T01:12:18.005Z,1010.95
2016-05-03T01:13:18.038Z,1010.93
2016-05-03T01:14:18.072Z,1010.94
2016-05-03T01:15:18.107Z,1010.91
2016-05-03T01:16:18.140Z,1010.91
2016-05-03T01:17:18.174Z,1010.9
2016-05-03T01:18:18.208Z,1010.88
2016-05-03T01:19:18.243Z,1010.89
2016-05-03T01:20:18.276Z,1010.91
2016-05-03T01:21:18.310Z,1010.92
2016-05-03T01:22:18.359Z,1010.9
2016-05-03T01:23:18.393Z,1010.94
2016-05-03T01:24:18.428Z,1010.91
2016-05-03T01:25:18.462Z,1010.94
2016-05-03T01:26:18.495Z,1010.93
2016-05-03T01:27:18.529Z,1010.89
2016-05-03T01:28:18.564Z,1010.91
2016-05-03T01:29:18.597Z,1010.92
2016-05-03T01:30:18.631Z,1010.94
2016-05-03T01:31:18.664Z,1010.94
2016-05-03T01:32:18.700Z,1010.92
2016-05-03T01:33:18.733Z,1010.97
2016-05-03T01:34:18.783Z,1010.94
2016-05-03T01:35:18.801Z,1010.95
2016-05-03T01:36:18.850Z,1010.92
2016-05-03T01:37:18.885Z,1010.92
2016-05-03T01:38:18.919Z,1010.9
2016-05-03T01:39:18.952Z,1010.88
2016-05-03T01:40:18.986Z,1010.88
2016-05-03T01:41:19.036Z,1010.87
2016-05-03T01:42:19.055Z,1010.87
2016-05-03T01:43:19.088Z,1010.85
2016-05-03T01:44:19.122Z,1010.8
2016-05-03T01:45:19.156Z,1010.85
2016-05-03T01:46:19.190Z,1010.83
2016-05-03T01:47:19.224Z,1010.79
2016-05-03T01:48:19.274Z,1010.81
2016-05-03T01:49:19.307Z,1010.81
2016-05-03T01:50:19.341Z,1010.76
2016-05-03T01:51:19.376Z,1010.79
2016-05-03T01:52:19.409Z,1010.78
2016-05-03T01:53:19.444Z,1010.77
2016-05-03T01:54:19.477Z,1010.8
2016-05-03T01:55:19.511Z,1010.77
2016-05-03T01:56:19.546Z,1010.76
2016-05-03T01:57:19.579Z,1010.77
2016-05-03T01:58:19.612Z,1010.77
2016-05-03T01:59:19.647Z,1010.77
2016-05-03T02:00:19.697Z,1010.75
2016-05-03T02:01:19.731Z,1010.8
2016-05-03T02:02:19.764Z,1010.74
2016-05-03T02:03:19.798Z,1010.75
2016-05-03T02:04:19.833Z,1010.74
2016-05-03T02:05:19.867Z,1010.73
2016-05-03T02:06:19.901Z,1010.74
2016-05-03T02:07:19.933Z,1010.7
2016-05-03T02:08:19.969Z,1010.73
2016-05-03T02:09:20.002Z,1010.72
2016-05-03T02:10:20.036Z,1010.73
2016-05-03T02:11:20.070Z,1010.76
2016-05-03T02:12:20.104Z,1010.74
2016-05-03T02:13:20.138Z,1010.8
2016-05-03T02:14:20.172Z,1010.74
2016-05-03T02:15:20.205Z,1010.78
2016-05-03T02:16:20.240Z,1010.75
2016-05-03T02:17:20.274Z,1010.77
2016-05-03T02:18:20.323Z,1010.76
2016-05-03T02:19:20.357Z,1010.79
2016-05-03T02:20:20.391Z,1010.83
2016-05-03T02:21:20.425Z,1010.77
2016-05-03T02:22:20.459Z,1010.77
2016-05-03T02:23:20.493Z,1010.76
2016-05-03T02:24:20.526Z,1010.76
2016-05-03T02:25:20.560Z,1010.76
2016-05-03T02:26:20.595Z,1010.74
2016-05-03T02:27:20.629Z,1010.71
2016-05-03T02:28:20.662Z,1010.75
2016-05-03T02:29:20.696Z,1010.73
2016-05-03T02:30:20.731Z,1010.78
2016-05-03T02:31:20.765Z,1010.76
2016-05-03T02:32:20.798Z,1010.75
2016-05-03T02:33:20.847Z,1010.75
2016-05-03T02:34:20.882Z,1010.75
2016-05-03T02:35:20.916Z,1010.74
2016-05-03T02:36:20.950Z,1010.73
2016-05-03T02:37:20.983Z,1010.7
2016-05-03T02:38:21.018Z,1010.68
2016-05-03T02:39:21.052Z,1010.73
2016-05-03T02:40:21.085Z,1010.74
2016-05-03T02:41:21.119Z,1010.72
2016-05-03T02:42:21.153Z,1010.71
2016-05-03T02:43:21.188Z,1010.75
2016-05-03T02:44:21.222Z,1010.74
2016-05-03T02:45:21.255Z,1010.78
2016-05-03T02:46:21.305Z,1010.77
2016-05-03T02:47:21.324Z,1010.75
2016-05-03T02:48:21.357Z,1010.74
2016-05-03T02:49:21.391Z,1010.72
2016-05-03T02:50:21.440Z,1010.69
2016-05-03T02:51:21.460Z,1010.67
2016-05-03T02:52:21.508Z,1010.7
2016-05-03T02:53:21.527Z,1010.68
2016-05-03T02:54:21.577Z,1010.68
2016-05-03T02:55:21.611Z,1010.68
2016-05-03T02:56:21.644Z,1010.68
2016-05-03T02:57:21.679Z,1010.68
2016-05-03T02:58:21.713Z,1010.65
2016-05-03T02:59:21.746Z,1010.65
2016-05-03T03:00:21.780Z,1010.62
2016-05-03T03:01:21.814Z,1010.65
2016-05-03T03:02:21.848Z,1010.61
2016-05-03T03:03:21.882Z,1010.59
2016-05-03T03:04:21.916Z,1010.61
2016-05-03T03:05:21.965Z,1010.57
2016-05-03T03:06:21.984Z,1010.57
2016-05-03T03:07:23.159Z,1010.55
2016-05-03T03:08:22.051Z,1010.56
2016-05-03T03:09:22.085Z,1010.59
2016-05-03T03:10:22.120Z,1010.59
2016-05-03T03:11:22.153Z,1010.54
2016-05-03T03:12:22.203Z,1010.56
2016-05-03T03:13:22.236Z,1010.53
2016-05-03T03:14:22.272Z,1010.51
2016-05-03T03:15:22.305Z,1010.52
2016-05-03T03:16:22.323Z,1010.48
2016-05-03T03:17:22.358Z,1010.49
2016-05-03T03:18:22.407Z,1010.43
2016-05-03T03:19:22.441Z,1010.45
2016-05-03T03:20:22.474Z,1010.43
2016-05-03T03:21:22.508Z,1010.41
2016-05-03T03:22:22.558Z,1010.4
2016-05-03T03:23:22.592Z,1010.4
2016-05-03T03:24:22.610Z,1010.43
2016-05-03T03:25:22.644Z,1010.39
2016-05-03T03:26:22.678Z,1010.41
2016-05-03T03:27:22.712Z,1010.35
2016-05-03T03:28:22.746Z,1010.37
2016-05-03T03:29:22.780Z,1010.38
2016-05-03T03:30:22.815Z,1010.36
2016-05-03T03:31:22.849Z,1010.32
2016-05-03T03:32:22.882Z,1010.29
2016-05-03T03:33:22.932Z,1010.3
2016-05-03T03:34:22.950Z,1010.23
2016-05-03T03:35:22.984Z,1010.25
2016-05-03T03:36:23.034Z,1010.24
2016-05-03T03:37:23.051Z,1010.23
2016-05-03T03:38:23.101Z,1010.24
2016-05-03T03:39:23.120Z,1010.26
2016-05-03T03:40:23.169Z,1010.27
2016-05-03T03:41:23.203Z,1010.31
2016-05-03T03:42:23.237Z,1010.3
2016-05-03T03:43:23.271Z,1010.3
2016-05-03T03:44:23.306Z,1010.31
2016-05-03T03:45:23.338Z,1010.29
2016-05-03T03:46:23.372Z,1010.29
2016-05-03T03:47:23.406Z,1010.32
2016-05-03T03:48:23.441Z,1010.24
2016-05-03T03:49:23.474Z,1010.28
2016-05-03T03:50:23.509Z,1010.28
2016-05-03T03:51:23.542Z,1010.26
2016-05-03T03:52:23.577Z,1010.3
2016-05-03T03:53:23.610Z,1010.26
2016-05-03T03:54:23.644Z,1010.28
2016-05-03T03:55:23.677Z,1010.29
2016-05-03T03:56:23.713Z,1010.32
2016-05-03T03:57:23.762Z,1010.27
2016-05-03T03:58:23.779Z,1010.26
2016-05-03T03:59:23.829Z,1010.24
2016-05-03T04:00:23.848Z,1010.24
2016-05-03T04:01:23.882Z,1010.27
2016-05-03T04:02:23.932Z,1010.28
2016-05-03T04:03:23.965Z,1010.3
2016-05-03T04:04:23.999Z,1010.27
2016-05-03T04:05:24.034Z,1010.27
2016-05-03T04:06:24.068Z,1010.29
2016-05-03T04:07:24.101Z,1010.31
2016-05-03T04:08:24.134Z,1010.3
2016-05-03T04:09:24.169Z,1010.3
2016-05-03T04:10:24.203Z,1010.31
2016-05-03T04:11:24.237Z,1010.31
2016-05-03T04:12:24.271Z,1010.27
2016-05-03T04:13:24.306Z,1010.27
2016-05-03T04:14:24.338Z,1010.26
2016-05-03T04:15:24.372Z,1010.3
2016-05-03T04:16:24.406Z,1010.31
2016-05-03T04:17:24.441Z,1010.32
2016-05-03T04:18:24.475Z,1010.32
2016-05-03T04:19:24.508Z,1010.29
2016-05-03T04:20:24.542Z,1010.27
2016-05-03T04:21:24.596Z,1010.32
2016-05-03T04:22:25.161Z,1010.31
2016-05-03T04:23:24.742Z,1010.31
2016-05-03T04:24:24.822Z,1010.31
2016-05-03T04:25:24.904Z,1010.33
2016-05-03T04:26:24.995Z,1010.35
2016-05-03T04:27:25.031Z,1010.35
2016-05-03T04:28:25.096Z,1010.39
2016-05-03T04:29:25.147Z,1010.45
2016-05-03T04:30:25.197Z,1010.46
2016-05-03T04:31:25.247Z,1010.45
2016-05-03T04:32:25.286Z,1010.45
2016-05-03T04:33:25.327Z,1010.49
2016-05-03T04:34:25.367Z,1010.52
2016-05-03T04:35:25.408Z,1010.5
2016-05-03T04:36:25.446Z,1010.53
2016-05-03T04:37:25.796Z,1010.54
2016-05-03T04:38:25.519Z,1010.66
2016-05-03T04:39:25.555Z,1010.77
2016-05-03T04:40:25.592Z,1010.82
2016-05-03T04:41:25.628Z,1010.96
2016-05-03T04:42:25.662Z,1010.87
2016-05-03T04:43:25.698Z,1010.88
2016-05-03T04:44:25.732Z,1011
2016-05-03T04:45:25.767Z,1010.98
2016-05-03T04:46:25.801Z,1011
2016-05-03T04:47:25.836Z,1011.05
2016-05-03T04:48:25.870Z,1011.04
2016-05-03T04:49:25.904Z,1011.03
2016-05-03T04:50:25.938Z,1011.01
2016-05-03T04:51:25.973Z,1011.03
2016-05-03T04:52:26.007Z,1011.1
2016-05-03T04:53:26.040Z,1011.07
2016-05-03T04:54:26.074Z,1011.09
2016-05-03T04:55:26.109Z,1011.1
2016-05-03T04:56:26.174Z,1011.16
2016-05-03T04:57:26.176Z,1011.11
2016-05-03T04:58:26.210Z,1011.11
2016-05-03T04:59:26.245Z,1011.14
2016-05-03T05:00:26.278Z,1011.12
2016-05-03T05:01:26.312Z,1011.14
2016-05-03T05:02:26.346Z,1011.13
2016-05-03T05:03:26.381Z,1011.15
2016-05-03T05:04:26.414Z,1011.21
2016-05-03T05:05:26.448Z,1011.2
2016-05-03T05:06:26.481Z,1011.21
2016-05-03T05:07:26.516Z,1011.17
2016-05-03T05:08:26.550Z,1011.23
2016-05-03T05:09:26.584Z,1011.29
2016-05-03T05:10:26.617Z,1011.36
2016-05-03T05:11:26.652Z,1011.31
2016-05-03T05:12:26.686Z,1011.34
2016-05-03T05:13:26.719Z,1011.34
2016-05-03T05:14:26.753Z,1011.33
2016-05-03T05:15:26.788Z,1011.36
2016-05-03T05:16:26.805Z,1011.38
2016-05-03T05:17:26.855Z,1011.38
2016-05-03T05:18:26.874Z,1011.41
2016-05-03T05:19:26.907Z,1011.4
2016-05-03T05:20:26.941Z,1011.43
2016-05-03T05:21:26.976Z,1011.47
2016-05-03T05:22:27.025Z,1011.49
2016-05-03T05:23:27.059Z,1011.47
2016-05-03T05:24:27.077Z,1011.57
2016-05-03T05:25:27.112Z,1011.59
2016-05-03T05:26:27.145Z,1011.62
2016-05-03T05:27:27.179Z,1011.62
2016-05-03T05:28:27.212Z,1011.68
2016-05-03T05:29:27.247Z,1011.67
2016-05-03T05:30:27.281Z,1011.69
2016-05-03T05:31:27.315Z,1011.68
2016-05-03T05:32:27.348Z,1011.72
2016-05-03T05:33:27.383Z,1011.73
2016-05-03T05:34:27.417Z,1011.77
2016-05-03T05:35:27.450Z,1011.74
2016-05-03T05:36:27.484Z,1011.78
2016-05-03T05:37:27.503Z,1011.81
2016-05-03T05:38:27.552Z,1011.85
2016-05-03T05:39:27.571Z,1011.85
2016-05-03T05:40:27.605Z,1011.9
2016-05-03T05:41:27.638Z,1011.84
2016-05-03T05:42:27.672Z,1011.91
2016-05-03T05:43:27.722Z,1011.87
2016-05-03T05:44:27.740Z,1011.94
2016-05-03T05:45:27.774Z,1011.9
2016-05-03T05:46:27.808Z,1011.92
2016-05-03T05:47:27.842Z,1011.99
2016-05-03T05:48:27.876Z,1011.95
2016-05-03T05:49:27.910Z,1011.95
2016-05-03T05:50:27.944Z,1012
2016-05-03T05:51:27.978Z,1011.96
2016-05-03T05:52:29.746Z,1011.98
2016-05-03T05:53:28.046Z,1012.03
2016-05-03T05:54:28.065Z,1012.02
2016-05-03T05:55:28.113Z,1012.06
2016-05-03T05:56:28.148Z,1012.05
2016-05-03T05:57:28.166Z,1012.06
2016-05-03T05:58:28.200Z,1012.1
2016-05-03T05:59:28.249Z,1012.06
2016-05-03T06:00:28.268Z,1012.1
2016-05-03T06:01:28.301Z,1012.16
2016-05-03T06:02:28.336Z,1012.16
2016-05-03T06:03:28.369Z,1012.16
2016-05-03T06:04:28.404Z,1012.16
2016-05-03T06:05:28.438Z,1012.16
2016-05-03T06:06:28.472Z,1012.15
2016-05-03T06:07:28.599Z,1012.15
2016-05-03T06:08:28.539Z,1012.16
2016-05-03T06:09:28.573Z,1012.16
2016-05-03T06:10:28.608Z,1012.2
2016-05-03T06:11:28.642Z,1012.29
2016-05-03T06:12:28.675Z,1012.3
2016-05-03T06:13:28.693Z,1012.35
2016-05-03T06:14:28.728Z,1012.37
2016-05-03T06:15:28.761Z,1012.36
2016-05-03T06:16:28.795Z,1012.37
2016-05-03T06:17:28.830Z,1012.42
2016-05-03T06:18:28.864Z,1012.44
2016-05-03T06:19:28.897Z,1012.43
2016-05-03T06:20:28.931Z,1012.44
2016-05-03T06:21:28.965Z,1012.44
2016-05-03T06:22:28.999Z,1012.45
2016-05-03T06:23:29.033Z,1012.46
2016-05-03T06:24:29.067Z,1012.48
2016-05-03T06:25:29.101Z,1012.49
2016-05-03T06:26:29.134Z,1012.48
2016-05-03T06:27:29.169Z,1012.5
2016-05-03T06:28:29.202Z,1012.52
2016-05-03T06:29:29.237Z,1012.49
2016-05-03T06:30:29.271Z,1012.51
2016-05-03T06:31:29.304Z,1012.55
2016-05-03T06:32:29.338Z,1012.51
2016-05-03T06:33:29.373Z,1012.52
2016-05-03T06:34:29.406Z,1012.59
2016-05-03T06:35:29.440Z,1012.62
2016-05-03T06:36:29.474Z,1012.61
2016-05-03T06:37:29.509Z,1012.67
2016-05-03T06:38:29.541Z,1012.64
2016-05-03T06:39:29.561Z,1012.69
2016-05-03T06:40:29.609Z,1012.68
2016-05-03T06:41:29.628Z,1012.67
2016-05-03T06:42:29.662Z,1012.68
2016-05-03T06:43:29.697Z,1012.67
2016-05-03T06:44:29.745Z,1012.71
2016-05-03T06:45:29.763Z,1012.71
2016-05-03T06:46:29.797Z,1012.71
2016-05-03T06:47:29.832Z,1012.75
2016-05-03T06:48:29.866Z,1012.78
2016-05-03T06:49:29.916Z,1012.81
2016-05-03T06:50:29.933Z,1012.79
2016-05-03T06:51:29.968Z,1012.75
2016-05-03T06:52:30.158Z,1012.75
2016-05-03T06:53:30.035Z,1012.81
2016-05-03T06:54:30.069Z,1012.88
2016-05-03T06:55:30.103Z,1012.88
2016-05-03T06:56:30.153Z,1012.9
2016-05-03T06:57:30.171Z,1012.9
2016-05-03T06:58:30.221Z,1012.93
2016-05-03T06:59:30.240Z,1012.94
2016-05-03T07:00:30.273Z,1012.93
2016-05-03T07:01:30.307Z,1012.93
2016-05-03T07:02:30.341Z,1012.99
2016-05-03T07:03:30.375Z,1013.12
2016-05-03T07:04:30.409Z,1013.07
2016-05-03T07:05:30.443Z,1013.1
2016-05-03T07:06:30.477Z,1013.12
2016-05-03T07:07:30.526Z,1013.05
2016-05-03T07:08:30.545Z,1013.07
2016-05-03T07:09:30.578Z,1013.12
2016-05-03T07:10:30.612Z,1013.12
2016-05-03T07:11:30.662Z,1013.23
2016-05-03T07:12:30.696Z,1013.24
2016-05-03T07:13:30.731Z,1013.25
2016-05-03T07:14:30.764Z,1013.24
2016-05-03T07:15:30.798Z,1013.25
2016-05-03T07:16:30.831Z,1013.2
2016-05-03T07:17:30.866Z,1013.29
2016-05-03T07:18:30.900Z,1013.33
2016-05-03T07:19:30.949Z,1013.35
2016-05-03T07:20:30.967Z,1013.38
2016-05-03T07:21:31.002Z,1013.36
2016-05-03T07:22:31.036Z,1013.31
2016-05-03T07:23:31.069Z,1013.31
2016-05-03T07:24:31.103Z,1013.36
2016-05-03T07:25:31.138Z,1013.42
2016-05-03T07:26:31.171Z,1013.48
2016-05-03T07:27:31.205Z,1013.47
2016-05-03T07:28:31.238Z,1013.43
2016-05-03T07:29:31.274Z,1013.46
2016-05-03T07:30:31.307Z,1013.41
2016-05-03T07:31:31.341Z,1013.43
2016-05-03T07:32:31.391Z,1013.45
2016-05-03T07:33:31.409Z,1013.38
2016-05-03T07:34:31.443Z,1013.42
2016-05-03T07:35:31.476Z,1013.46
2016-05-03T07:36:31.510Z,1013.45
2016-05-03T07:37:31.545Z,1013.5
2016-05-03T07:38:31.594Z,1013.41
2016-05-03T07:39:31.613Z,1013.46
2016-05-03T07:40:31.662Z,1013.53
2016-05-03T07:41:31.696Z,1013.51
2016-05-03T07:42:31.715Z,1013.54
2016-05-03T07:43:31.748Z,1013.5
2016-05-03T07:44:31.798Z,1013.55
2016-05-03T07:45:31.831Z,1013.56
2016-05-03T07:46:31.850Z,1013.63
2016-05-03T07:47:31.900Z,1013.71
2016-05-03T07:48:31.934Z,1013.71
2016-05-03T07:49:31.952Z,1013.73
2016-05-03T07:50:31.986Z,1013.71
2016-05-03T07:51:32.036Z,1013.7
2016-05-03T07:52:32.069Z,1013.75
2016-05-03T07:53:32.103Z,1013.78
2016-05-03T07:54:32.138Z,1013.88
2016-05-03T07:55:32.172Z,1013.83
2016-05-03T07:56:32.205Z,1013.92
2016-05-03T07:57:32.238Z,1013.9
2016-05-03T07:58:32.648Z,1013.94
2016-05-03T07:59:32.307Z,1013.95
2016-05-03T08:00:32.341Z,1013.99
2016-05-03T08:01:32.391Z,1013.99
2016-05-03T08:02:32.425Z,1013.94
2016-05-03T08:03:32.458Z,1013.96
2016-05-03T08:04:32.493Z,1013.96
2016-05-03T08:05:32.543Z,1013.94
2016-05-03T08:06:32.576Z,1013.88
2016-05-03T08:07:32.610Z,1013.9
2016-05-03T08:08:32.644Z,1013.92
2016-05-03T08:09:32.678Z,1013.93
2016-05-03T08:10:32.726Z,1013.99
2016-05-03T08:11:32.762Z,1013.99
2016-05-03T08:12:32.795Z,1013.95
2016-05-03T08:13:32.844Z,1013.93
2016-05-03T08:14:32.879Z,1013.95
2016-05-03T08:15:32.912Z,1013.99
2016-05-03T08:16:32.962Z,1014
2016-05-03T08:17:32.996Z,1014.04
2016-05-03T08:18:33.030Z,1014.01
2016-05-03T08:19:33.064Z,1014.04
2016-05-03T08:20:33.113Z,1014.01
2016-05-03T08:21:33.147Z,1014
2016-05-03T08:22:33.181Z,1014
2016-05-03T08:23:33.231Z,1014.06
2016-05-03T08:24:33.264Z,1014.11
2016-05-03T08:25:33.299Z,1014.18
2016-05-03T08:26:33.333Z,1014.09
2016-05-03T08:27:33.382Z,1014.12
2016-05-03T08:28:33.416Z,1014.1
2016-05-03T08:29:33.450Z,1014.07
2016-05-03T08:30:33.485Z,1014.17
2016-05-03T08:31:33.533Z,1014.11
2016-05-03T08:32:33.568Z,1014.15
2016-05-03T08:33:33.601Z,1014.18
2016-05-03T08:34:33.635Z,1014.1
2016-05-03T08:35:33.685Z,1014.11
2016-05-03T08:36:33.734Z,1014.11
2016-05-03T08:37:33.753Z,1014.15
2016-05-03T08:38:33.787Z,1014.12
2016-05-03T08:39:33.836Z,1014.11
2016-05-03T08:40:33.870Z,1014.17
2016-05-03T08:41:33.904Z,1014.17
2016-05-03T08:42:33.937Z,1014.14
2016-05-03T08:43:33.987Z,1014.16
2016-05-03T08:44:34.023Z,1014.14
2016-05-03T08:45:34.056Z,1014.11
2016-05-03T08:46:34.089Z,1014.22
2016-05-03T08:47:34.140Z,1014.21
2016-05-03T08:48:34.173Z,1014.2
2016-05-03T08:49:34.206Z,1014.23
2016-05-03T08:50:34.241Z,1014.1
2016-05-03T08:51:34.275Z,1014.11
2016-05-03T08:52:34.324Z,1014.1
2016-05-03T08:53:34.358Z,1014.14
2016-05-03T08:54:34.392Z,1014.22
2016-05-03T08:55:34.427Z,1014.2
2016-05-03T08:56:34.476Z,1014.24
2016-05-03T08:57:34.510Z,1014.27
2016-05-03T08:58:34.544Z,1014.24
2016-05-03T08:59:34.594Z,1014.25
2016-05-03T09:00:35.346Z,1014.25
2016-05-03T09:01:34.661Z,1014.26
2016-05-03T09:02:34.710Z,1014.23
2016-05-03T09:03:34.744Z,1014.24
2016-05-03T09:04:34.779Z,1014.27
2016-05-03T09:05:34.829Z,1014.24
2016-05-03T09:06:34.862Z,1014.21
2016-05-03T09:07:34.896Z,1014.24
2016-05-03T09:08:34.930Z,1014.22
2016-05-03T09:09:34.979Z,1014.29
2016-05-03T09:10:35.013Z,1014.28
2016-05-03T09:11:35.048Z,1014.33
2016-05-03T09:12:35.082Z,1014.35
2016-05-03T09:13:35.131Z,1014.25
2016-05-03T09:14:35.165Z,1014.31
2016-05-03T09:15:35.198Z,1014.33
2016-05-03T09:16:35.248Z,1014.28
2016-05-03T09:17:35.282Z,1014.34
2016-05-03T09:18:35.316Z,1014.36
2016-05-03T09:19:35.366Z,1014.39
2016-05-03T09:20:35.400Z,1014.42
2016-05-03T09:21:35.449Z,1014.39
2016-05-03T09:22:35.467Z,1014.4
2016-05-03T09:23:35.517Z,1014.38
2016-05-03T09:24:35.551Z,1014.42
2016-05-03T09:25:35.585Z,1014.39
2016-05-03T09:26:35.619Z,1014.45
2016-05-03T09:27:35.669Z,1014.51
2016-05-03T09:28:35.703Z,1014.47
2016-05-03T09:29:35.752Z,1014.41
2016-05-03T09:30:35.786Z,1014.42
2016-05-03T09:31:35.819Z,1014.41
2016-05-03T09:32:35.869Z,1014.49
2016-05-03T09:33:35.903Z,1014.42
2016-05-03T09:34:35.938Z,1014.37
2016-05-03T09:35:35.987Z,1014.36
2016-05-03T09:36:36.037Z,1014.45
2016-05-03T09:37:36.071Z,1014.4
2016-05-03T09:38:36.104Z,1014.35
2016-05-03T09:39:36.154Z,1014.46
2016-05-03T09:40:36.188Z,1014.38
2016-05-03T09:41:36.237Z,1014.42
2016-05-03T09:42:36.287Z,1014.49
2016-05-03T09:43:36.321Z,1014.45
2016-05-03T09:44:36.371Z,1014.44
2016-05-03T09:45:36.404Z,1014.44
2016-05-03T09:46:36.439Z,1014.47
2016-05-03T09:47:36.488Z,1014.5
2016-05-03T09:48:36.537Z,1014.47
2016-05-03T09:49:36.572Z,1014.39
2016-05-03T09:50:36.620Z,1014.46
2016-05-03T09:51:36.656Z,1014.43
2016-05-03T09:52:36.705Z,1014.55
2016-05-03T09:53:36.738Z,1014.55
2016-05-03T09:54:36.789Z,1014.57
2016-05-03T09:55:36.838Z,1014.56
2016-05-03T09:56:36.872Z,1014.6
2016-05-03T09:57:36.922Z,1014.64
2016-05-03T09:58:36.955Z,1014.72
2016-05-03T09:59:36.989Z,1014.65
2016-05-03T10:00:37.022Z,1014.66
2016-05-03T10:01:37.073Z,1014.86
2016-05-03T10:02:37.122Z,1014.79
2016-05-03T10:03:37.155Z,1014.79
2016-05-03T10:04:37.190Z,1014.87
2016-05-03T10:05:37.240Z,1014.82
2016-05-03T10:06:37.273Z,1014.84
2016-05-03T10:07:37.307Z,1014.83
2016-05-03T10:08:37.357Z,1014.93
2016-05-03T10:09:37.390Z,1014.8
2016-05-03T10:10:37.424Z,1014.81
2016-05-03T10:11:37.474Z,1014.78
2016-05-03T10:12:37.509Z,1014.79
2016-05-03T10:13:37.557Z,1014.76
2016-05-03T10:14:37.592Z,1014.78
2016-05-03T10:15:37.642Z,1014.87
2016-05-03T10:16:37.676Z,1014.83
2016-05-03T10:17:37.709Z,1014.78
2016-05-03T10:18:37.759Z,1014.81
2016-05-03T10:19:37.792Z,1014.76
2016-05-03T10:20:37.843Z,1014.79
2016-05-03T10:21:37.876Z,1014.76
2016-05-03T10:22:37.956Z,1014.75
2016-05-03T10:23:37.959Z,1014.8
2016-05-03T10:24:38.009Z,1014.84
2016-05-03T10:25:38.059Z,1014.9
2016-05-03T10:26:38.093Z,1014.8
2016-05-03T10:27:38.142Z,1014.78
2016-05-03T10:28:38.177Z,1014.79
2016-05-03T10:29:38.226Z,1014.86
2016-05-03T10:30:38.260Z,1014.83
2016-05-03T10:31:38.310Z,1014.87
2016-05-03T10:32:38.359Z,1014.83
2016-05-03T10:33:38.393Z,1014.81
2016-05-03T10:34:38.427Z,1014.79
2016-05-03T10:35:38.477Z,1014.78
2016-05-03T10:36:38.527Z,1014.81
2016-05-03T10:37:38.951Z,1014.81
2016-05-03T10:38:38.610Z,1014.78
2016-05-03T10:39:38.644Z,1014.86
2016-05-03T10:40:38.693Z,1014.8
2016-05-03T10:41:38.743Z,1014.83
2016-05-03T10:42:38.777Z,1014.85
2016-05-03T10:43:38.826Z,1014.81
2016-05-03T10:44:38.876Z,1014.86
2016-05-03T10:45:38.910Z,1014.93
2016-05-03T10:46:38.959Z,1014.87
2016-05-03T10:47:39.009Z,1014.85
2016-05-03T10:48:39.042Z,1014.93
2016-05-03T10:49:39.092Z,1014.91
2016-05-03T10:50:39.126Z,1014.86
2016-05-03T10:51:39.176Z,1014.82
2016-05-03T10:52:39.226Z,1014.97
2016-05-03T10:53:39.259Z,1014.94
2016-05-03T10:54:39.308Z,1014.93
2016-05-03T10:55:39.359Z,1014.86
2016-05-03T10:56:39.408Z,1014.84
2016-05-03T10:57:39.442Z,1014.89
2016-05-03T10:58:39.492Z,1014.88
2016-05-03T10:59:39.541Z,1014.89
2016-05-03T11:00:39.591Z,1014.89
2016-05-03T11:01:39.625Z,1014.99
2016-05-03T11:02:39.674Z,1015
2016-05-03T11:03:39.724Z,1015.03
2016-05-03T11:04:39.758Z,1014.97
2016-05-03T11:05:39.791Z,1015.09
2016-05-03T11:06:39.841Z,1015.05
2016-05-03T11:07:39.891Z,1015.05
2016-05-03T11:08:39.924Z,1015.09
2016-05-03T11:09:39.975Z,1015.12
2016-05-03T11:10:40.008Z,1015.11
2016-05-03T11:11:40.057Z,1015.06
2016-05-03T11:12:40.092Z,1015.07
2016-05-03T11:13:40.125Z,1015.2
2016-05-03T11:14:40.175Z,1015.16
2016-05-03T11:15:40.209Z,1015.2
2016-05-03T11:16:40.259Z,1015.19
2016-05-03T11:17:40.293Z,1015.24
2016-05-03T11:18:40.326Z,1015.21
2016-05-03T11:19:40.376Z,1015.23
2016-05-03T11:20:40.409Z,1015.19
2016-05-03T11:21:40.460Z,1015.28
2016-05-03T11:22:40.493Z,1015.26
2016-05-03T11:23:40.528Z,1015.27
2016-05-03T11:24:40.578Z,1015.28
2016-05-03T11:25:40.611Z,1015.26
2016-05-03T11:26:40.661Z,1015.25
2016-05-03T11:27:40.679Z,1015.23
2016-05-03T11:28:40.728Z,1015.24
2016-05-03T11:29:40.762Z,1015.21
2016-05-03T11:30:40.812Z,1015.25
2016-05-03T11:31:40.846Z,1015.2
2016-05-03T11:32:40.880Z,1015.23
2016-05-03T11:33:40.930Z,1015.25
2016-05-03T11:34:40.963Z,1015.24
2016-05-03T11:35:40.997Z,1015.23
2016-05-03T11:36:41.047Z,1015.26
2016-05-03T11:37:41.080Z,1015.27
2016-05-03T11:38:41.115Z,1015.35
2016-05-03T11:39:41.164Z,1015.3
2016-05-03T11:40:41.198Z,1015.29
2016-05-03T11:41:41.249Z,1015.27
2016-05-03T11:42:41.282Z,1015.31
2016-05-03T11:43:41.316Z,1015.32
2016-05-03T11:44:41.366Z,1015.21
2016-05-03T11:45:41.399Z,1015.28
2016-05-03T11:46:41.448Z,1015.16
2016-05-03T11:47:41.482Z,1015.25
2016-05-03T11:48:41.532Z,1015.3
2016-05-03T11:49:41.566Z,1015.26
2016-05-03T11:50:41.616Z,1015.3
2016-05-03T11:51:41.650Z,1015.28
2016-05-03T11:52:41.699Z,1015.3
2016-05-03T11:53:41.733Z,1015.33
2016-05-03T11:54:41.784Z,1015.3
2016-05-03T11:55:41.817Z,1015.3
2016-05-03T11:56:41.851Z,1015.32
2016-05-03T11:57:41.900Z,1015.28
2016-05-03T11:58:41.934Z,1015.33
2016-05-03T11:59:41.968Z,1015.34
2016-05-03T12:00:42.017Z,1015.34
2016-05-03T12:01:42.053Z,1015.43
2016-05-03T12:02:42.101Z,1015.42
2016-05-03T12:03:42.135Z,1015.39
2016-05-03T12:04:42.185Z,1015.41
2016-05-03T12:05:42.219Z,1015.44
2016-05-03T12:06:42.269Z,1015.47
2016-05-03T12:07:42.444Z,1015.42
2016-05-03T12:08:42.352Z,1015.34